Time;durP1;ratioP1;P1;durP2;ratioP2;P2;SDS_P1;SDS_P2;PMS_P1;PMS_P2;Temp;Humidity;BMP_temperature;BMP_pressure;BME280_temperature;BME280_humidity;BME280_pressure;Samples;Min_cycle;Max_cycle;Signal;HPM_P1;HPM_P2
2023/01/27 00:02:21;;;;;;;16.80;11.80;;;;;;;3.39;100.00;98779.69;5052545;28;20222;-53
2023/01/27 00:04:50;;;;;;;14.27;10.53;;;;;;;3.35;100.00;98768.56;5053991;28;20186;-53
2023/01/27 00:07:16;;;;;;;12.47;9.83;;;;;;;3.32;100.00;98778.63;5053494;28;20576;-53
2023/01/27 00:09:44;;;;;;;14.93;9.80;;;;;;;3.34;100.00;98791.38;5036264;28;20666;-53
2023/01/27 00:15:04;;;;;;;12.70;9.20;;;;;;;3.37;100.00;98799.97;5035871;28;20262;-54
2023/01/27 00:17:31;;;;;;;9.97;8.77;;;;;;;3.38;100.00;98796.59;5052720;28;20220;-53
2023/01/27 00:19:59;;;;;;;10.60;9.40;;;;;;;3.34;100.00;98779.53;5050551;28;20194;-53
2023/01/27 00:25:11;;;;;;;11.63;9.30;;;;;;;3.45;100.00;98775.69;5039691;28;20250;-53
2023/01/27 00:27:38;;;;;;;13.90;10.83;;;;;;;3.50;100.00;98765.66;5052913;28;20238;-53
2023/01/27 00:30:05;;;;;;;14.40;10.93;;;;;;;3.47;100.00;98756.28;5053072;28;20197;-53
2023/01/27 00:35:18;;;;;;;13.00;11.13;;;;;;;3.40;99.98;98720.50;5053004;28;20209;-53
2023/01/27 00:37:45;;;;;;;19.63;12.10;;;;;;;3.45;99.82;98741.81;5052684;28;20619;-53
2023/01/27 00:40:14;;;;;;;18.27;13.17;;;;;;;3.21;99.74;98713.97;5052686;28;20271;-53
2023/01/27 00:42:40;;;;;;;19.73;13.90;;;;;;;3.44;100.00;98747.69;5052593;28;20232;-53
2023/01/27 00:47:53;;;;;;;18.20;12.73;;;;;;;3.30;100.00;98737.09;5052946;28;20195;-53
2023/01/27 00:50:21;;;;;;;18.07;12.40;;;;;;;3.43;100.00;98744.28;5052366;28;20238;-53
2023/01/27 00:52:48;;;;;;;17.23;11.90;;;;;;;3.47;100.00;98752.88;5052397;28;20607;-54
2023/01/27 00:55:15;;;;;;;15.60;12.63;;;;;;;3.46;100.00;98751.16;5052053;28;20189;-54
2023/01/27 00:57:42;;;;;;;16.47;12.67;;;;;;;3.48;100.00;98744.44;5052307;28;20284;-53
2023/01/27 01:00:10;;;;;;;16.80;11.80;;;;;;;3.50;100.00;98732.66;5052211;28;20680;-53
2023/01/27 01:02:37;;;;;;;18.63;12.53;;;;;;;3.48;100.00;98729.22;5052063;28;20696;-53
2023/01/27 01:05:05;;;;;;;18.87;12.27;;;;;;;3.33;100.00;98688.97;5052083;28;20190;-55
2023/01/27 01:07:33;;;;;;;20.97;13.10;;;;;;;3.45;100.00;98702.06;5052235;28;20192;-53
2023/01/27 01:10:00;;;;;;;17.60;13.03;;;;;;;2.93;100.00;98614.94;5052025;28;20296;-53
2023/01/27 01:12:26;;;;;;;15.83;12.53;;;;;;;3.36;100.00;98678.91;5052318;28;20192;-53
2023/01/27 01:14:53;;;;;;;16.33;11.80;;;;;;;3.36;100.00;98678.03;5052332;28;20193;-53
2023/01/27 01:17:20;;;;;;;14.07;11.37;;;;;;;3.34;100.00;98674.59;5052151;28;20196;-53
2023/01/27 01:19:47;;;;;;;12.53;10.40;;;;;;;3.31;100.00;98690.59;5052180;28;20184;-54
2023/01/27 01:22:13;;;;;;;12.60;10.17;;;;;;;3.28;100.00;98720.09;5051879;28;20192;-54
2023/01/27 01:24:41;;;;;;;13.63;10.80;;;;;;;3.25;100.00;98738.63;5051782;28;20186;-54
2023/01/27 01:27:08;;;;;;;13.80;10.57;;;;;;;3.35;100.00;98739.78;5052236;28;20196;-54
2023/01/27 01:29:35;;;;;;;13.80;9.57;;;;;;;3.41;100.00;98747.59;5052003;28;20323;-54
2023/01/27 01:32:02;;;;;;;12.33;9.80;;;;;;;3.34;100.00;98746.53;5052234;28;20691;-53
2023/01/27 01:34:29;;;;;;;12.10;9.50;;;;;;;3.41;100.00;98748.44;5051886;28;20188;-53
2023/01/27 01:36:55;;;;;;;11.40;9.20;;;;;;;3.36;100.00;98724.59;5052079;28;20227;-53
2023/01/27 01:39:22;;;;;;;14.93;10.20;;;;;;;3.38;100.00;98717.03;5051687;28;20657;-53
2023/01/27 01:41:50;;;;;;;11.93;9.00;;;;;;;3.48;100.00;98719.06;5051900;28;20254;-53
2023/01/27 01:44:24;;;;;;;12.10;9.20;;;;;;;3.34;100.00;98685.63;5051586;28;20219;-53
2023/01/27 01:46:51;;;;;;;14.00;10.60;;;;;;;3.48;100.00;98709.78;5051855;28;20189;-54
2023/01/27 01:49:22;;;;;;;12.33;9.50;;;;;;;3.52;100.00;98709.03;5051389;28;20192;-53
2023/01/27 01:51:54;;;;;;;11.53;9.17;;;;;;;3.54;100.00;98704.84;5051869;28;20190;-53
2023/01/27 01:54:26;;;;;;;12.73;9.27;;;;;;;3.53;100.00;98694.66;5051496;28;20208;-54
2023/01/27 01:56:57;;;;;;;9.80;7.90;;;;;;;3.54;100.00;98676.91;5051972;28;20188;-54
2023/01/27 01:59:29;;;;;;;11.70;8.10;;;;;;;3.61;100.00;98679.66;5051558;28;20185;-54
2023/01/27 02:01:58;;;;;;;11.13;8.83;;;;;;;3.60;100.00;98673.72;5051658;28;20186;-53
2023/01/27 02:04:31;;;;;;;11.70;8.63;;;;;;;3.57;100.00;98683.81;5051363;28;20216;-53
2023/01/27 02:07:04;;;;;;;10.80;8.33;;;;;;;3.50;100.00;98659.03;5054045;28;20549;-53
2023/01/27 02:09:31;;;;;;;10.87;7.80;;;;;;;3.63;100.00;98689.03;5055958;28;20190;-53
2023/01/27 02:12:00;;;;;;;10.00;8.03;;;;;;;3.67;100.00;98669.69;5055652;28;20263;-54
2023/01/27 02:14:27;;;;;;;10.43;8.50;;;;;;;3.69;100.00;98661.28;5055251;28;20282;-54
2023/01/27 02:16:54;;;;;;;9.60;7.60;;;;;;;3.66;99.74;98648.50;5055303;28;20194;-55
2023/01/27 02:19:28;;;;;;;10.43;8.03;;;;;;;3.71;98.94;98659.66;5055187;28;20197;-53
2023/01/27 02:21:56;;;;;;;13.83;9.37;;;;;;;3.72;99.27;98656.31;5055970;28;20189;-54
2023/01/27 02:24:31;;;;;;;13.50;10.02;;;;;;;3.63;99.03;98623.00;5054985;28;20819;-53
2023/01/27 02:26:59;;;;;;;12.20;9.17;;;;;;;3.75;99.03;98636.09;5055754;28;20252;-54
2023/01/27 02:29:27;;;;;;;11.30;9.40;;;;;;;3.70;99.19;98632.53;5055044;28;20192;-53
2023/01/27 02:31:54;;;;;;;11.40;9.17;;;;;;;3.68;98.52;98618.91;5055456;28;20277;-53
2023/01/27 02:34:25;;;;;;;12.33;9.73;;;;;;;3.69;98.73;98624.88;5055365;28;20203;-54
2023/01/27 02:36:57;;;;;;;15.60;11.63;;;;;;;3.65;98.84;98628.16;5055342;28;20221;-54
2023/01/27 02:39:36;;;;;;;17.83;12.50;;;;;;;3.64;99.43;98632.38;5055182;28;20195;-54
2023/01/27 02:42:06;;;;;;;13.20;10.63;;;;;;;3.72;99.84;98651.22;5054861;28;20726;-54
2023/01/27 02:44:33;;;;;;;14.67;11.57;;;;;;;3.75;99.54;98628.47;5055134;28;20600;-53
2023/01/27 02:47:00;;;;;;;14.40;11.80;;;;;;;3.75;99.03;98623.38;5054748;28;20187;-55
2023/01/27 02:49:26;;;;;;;13.20;10.77;;;;;;;3.81;98.97;98636.25;5055231;28;20197;-54
2023/01/27 02:51:53;;;;;;;17.33;12.77;;;;;;;3.84;97.99;98635.50;5054682;28;20267;-54
2023/01/27 02:54:20;;;;;;;17.30;13.13;;;;;;;3.80;98.22;98621.81;5055424;28;20196;-54
2023/01/27 02:56:47;;;;;;;15.73;12.53;;;;;;;3.86;97.96;98622.00;5054478;28;20193;-53
2023/01/27 02:59:15;;;;;;;16.10;13.17;;;;;;;3.86;97.49;98632.16;5054924;28;20204;-54
2023/01/27 03:01:42;;;;;;;16.97;12.67;;;;;;;3.89;97.47;98628.84;5054706;28;20190;-54
2023/01/27 03:04:10;;;;;;;14.77;12.27;;;;;;;3.90;97.95;98621.25;5054562;28;20223;-55
2023/01/27 03:06:37;;;;;;;15.97;12.97;;;;;;;3.89;97.66;98617.00;5054662;28;20571;-54
2023/01/27 03:09:05;;;;;;;16.27;12.40;;;;;;;3.74;97.91;98575.06;5054504;28;20210;-53
2023/01/27 03:14:19;;;;;;;15.80;12.53;;;;;;;3.88;97.33;98600.03;5029162;28;20205;-53
2023/01/27 03:19:30;;;;;;;15.63;12.33;;;;;;;3.83;97.62;98600.72;5053980;28;20201;-53
2023/01/27 03:22:02;;;;;;;15.90;12.27;;;;;;;3.86;97.43;98600.81;5054231;28;20253;-53
2023/01/27 03:24:28;;;;;;;16.57;11.40;;;;;;;3.88;98.19;98615.28;5054284;28;20266;-54
2023/01/27 03:26:55;;;;;;;13.87;10.90;;;;;;;3.87;98.15;98622.88;5049373;28;20189;-55
2023/01/27 03:32:08;;;;;;;12.60;10.70;;;;;;;3.88;98.89;98638.16;5036637;28;20221;-54
2023/01/27 03:34:35;;;;;;;13.53;10.80;;;;;;;3.90;98.98;98628.88;5052200;28;20734;-54
2023/01/27 03:47:59;;;;;;;10.97;8.63;;;;;;;3.93;98.54;98620.47;5051867;28;20198;-53
2023/01/27 03:50:36;;;;;;;9.03;7.73;;;;;;;3.90;98.91;98616.19;5053330;28;20194;-54
2023/01/27 03:53:03;;;;;;;10.90;8.83;;;;;;;3.91;98.06;98611.97;5052649;28;20194;-53
2023/01/27 03:55:30;;;;;;;8.53;7.53;;;;;;;3.97;98.53;98622.31;5053269;28;20203;-54
2023/01/27 03:58:04;;;;;;;9.67;7.03;;;;;;;3.99;98.06;98618.97;5043950;28;20203;-55
2023/01/27 04:00:33;;;;;;;8.43;7.00;;;;;;;4.01;97.89;98626.66;5046021;28;20255;-55
2023/01/27 04:08:28;;;;;;;11.53;9.20;;;;;;;4.09;99.25;98602.31;5052373;28;20227;-54
2023/01/27 04:13:35;;;;;;;8.73;7.63;;;;;;;4.16;97.67;98597.44;5050037;28;20204;-55
2023/01/27 04:16:03;;;;;;;9.33;8.07;;;;;;;4.18;98.05;98593.25;5033195;28;20669;-53
2023/01/27 04:18:30;;;;;;;8.87;7.97;;;;;;;4.13;97.74;98586.31;5040605;28;20195;-53
2023/01/27 04:20:57;;;;;;;8.43;7.53;;;;;;;4.21;97.84;98591.59;5055379;28;20192;-53
2023/01/27 04:23:23;;;;;;;9.20;7.80;;;;;;;4.19;97.43;98586.50;5053033;28;20222;-53
2023/01/27 04:25:53;;;;;;;8.57;7.67;;;;;;;4.24;96.96;98594.22;5052945;28;20194;-53
2023/01/27 04:28:19;;;;;;;9.47;8.47;;;;;;;4.24;97.56;98587.47;5053011;28;20282;-53
2023/01/27 04:30:46;;;;;;;9.67;8.37;;;;;;;4.25;97.04;98584.13;5051862;28;20188;-53
2023/01/27 04:33:15;;;;;;;10.37;7.80;;;;;;;4.22;97.88;98581.50;5052693;28;20194;-53
2023/01/27 04:35:44;;;;;;;9.70;8.70;;;;;;;4.28;96.61;98581.66;5052580;28;20226;-53
2023/01/27 04:38:11;;;;;;;11.43;9.30;;;;;;;4.21;97.02;98568.72;5052752;28;20192;-53
2023/01/27 04:40:37;;;;;;;10.60;8.70;;;;;;;4.23;97.37;98574.72;5052659;28;20560;-53
2023/01/27 04:43:05;;;;;;;11.27;10.07;;;;;;;4.00;97.90;98529.25;5052814;28;20198;-52
2023/01/27 04:45:32;;;;;;;11.70;9.50;;;;;;;4.23;96.97;98573.03;5052450;28;20193;-53
2023/01/27 04:47:59;;;;;;;12.17;9.60;;;;;;;4.27;96.92;98579.06;5052641;28;20256;-53
2023/01/27 04:50:27;;;;;;;13.50;10.13;;;;;;;4.20;97.50;98579.72;5052828;28;20190;-53
2023/01/27 04:52:54;;;;;;;10.33;8.73;;;;;;;4.22;96.85;98584.03;5049038;28;20256;-52
2023/01/27 04:55:20;;;;;;;11.20;9.47;;;;;;;4.30;96.60;98577.47;5048239;28;20197;-53
2023/01/27 04:57:47;;;;;;;13.10;9.07;;;;;;;4.31;96.59;98575.78;5043626;28;20202;-53
2023/01/27 05:00:15;;;;;;;11.60;8.80;;;;;;;4.34;96.75;98574.16;5036728;28;20202;-54
2023/01/27 05:02:42;;;;;;;13.50;9.17;;;;;;;4.32;95.53;98570.72;5032625;28;20250;-54
2023/01/27 05:05:10;;;;;;;13.77;10.60;;;;;;;4.12;96.05;98543.94;5032094;28;20761;-54
2023/01/27 05:07:38;;;;;;;13.87;11.20;;;;;;;4.29;95.86;98568.09;5046760;28;20252;-52
2023/01/27 05:10:06;;;;;;;14.67;11.60;;;;;;;4.29;95.21;98582.50;5049588;28;20207;-53
2023/01/27 05:12:33;;;;;;;15.30;11.67;;;;;;;4.33;96.01;98594.47;5037387;28;20584;-53
2023/01/27 05:14:59;;;;;;;15.25;13.63;;;;;;;4.36;95.53;98602.19;5050960;28;20435;-52
2023/01/27 05:17:30;;;;;;;16.33;11.20;;;;;;;4.39;95.80;98604.81;5052046;28;20190;-53
2023/01/27 05:19:57;;;;;;;14.43;10.87;;;;;;;4.36;96.03;98607.28;5048850;28;20666;-52
2023/01/27 05:22:23;;;;;;;11.23;9.03;;;;;;;4.28;95.02;98608.75;5031904;28;20245;-52
2023/01/27 05:24:52;;;;;;;12.63;10.43;;;;;;;4.35;95.58;98614.03;5031863;28;20230;-52
2023/01/27 05:27:18;;;;;;;15.60;11.33;;;;;;;4.39;96.07;98625.16;5031729;28;20200;-52
2023/01/27 05:29:45;;;;;;;14.37;11.43;;;;;;;4.36;96.46;98615.75;5049617;28;20204;-53
2023/01/27 05:32:12;;;;;;;13.70;10.17;;;;;;;4.26;95.78;98618.88;5032499;28;20194;-53
2023/01/27 05:34:39;;;;;;;11.27;9.27;;;;;;;4.33;95.63;98612.28;5051947;28;20191;-52
2023/01/27 05:37:05;;;;;;;14.43;10.10;;;;;;;4.37;95.93;98614.91;5052109;28;20224;-53
2023/01/27 05:39:32;;;;;;;14.60;10.23;;;;;;;4.36;95.40;98612.34;5034296;28;20188;-54
2023/01/27 05:42:00;;;;;;;12.60;10.43;;;;;;;4.41;96.33;98619.28;5050598;28;20190;-60
2023/01/27 05:44:27;;;;;;;14.00;10.57;;;;;;;4.42;95.97;98620.16;5050484;28;20295;-52
2023/01/27 05:46:54;;;;;;;14.20;9.87;;;;;;;4.39;94.94;98617.53;5051592;28;20190;-52
2023/01/27 05:49:21;;;;;;;12.10;9.70;;;;;;;4.42;95.58;98610.81;5051542;28;20190;-52
2023/01/27 05:51:47;;;;;;;11.45;9.43;;;;;;;4.47;95.19;98618.59;5051375;28;20436;-54
2023/01/27 05:54:14;;;;;;;13.17;9.27;;;;;;;4.48;95.24;98621.16;5051339;28;20191;-52
2023/01/27 05:56:41;;;;;;;11.10;8.70;;;;;;;4.47;94.40;98614.38;5050731;28;20270;-52
2023/01/27 05:59:10;;;;;;;10.40;8.17;;;;;;;4.50;94.51;98613.59;5043926;28;20213;-52
2023/01/27 06:01:37;;;;;;;9.20;7.57;;;;;;;4.43;94.98;98602.38;5044042;28;20663;-52
2023/01/27 06:04:05;;;;;;;10.80;7.93;;;;;;;4.50;95.08;98611.91;5051333;28;20229;-52
2023/01/27 06:06:33;;;;;;;11.48;9.80;;;;;;;4.50;94.96;98608.50;5050638;28;20439;-52
2023/01/27 06:09:00;;;;;;;10.97;9.37;;;;;;;4.51;95.94;98600.88;5051321;28;20564;-53
2023/01/27 06:11:27;;;;;;;11.07;9.27;;;;;;;4.60;95.00;98601.13;5051221;28;20196;-54
2023/01/27 06:13:54;;;;;;;11.87;9.00;;;;;;;4.39;94.65;98562.44;5051103;28;20197;-53
2023/01/27 06:16:23;;;;;;;11.23;9.07;;;;;;;4.52;94.14;98592.44;5051381;28;20189;-53
2023/01/27 06:18:50;;;;;;;11.63;9.30;;;;;;;4.50;94.17;98588.16;5050983;28;20190;-53
2023/01/27 06:21:19;;;;;;;9.50;8.60;;;;;;;4.54;94.46;98585.72;5050933;28;20194;-52
2023/01/27 06:23:45;;;;;;;10.30;9.20;;;;;;;4.54;94.68;98598.44;5051251;28;20223;-53
2023/01/27 06:26:15;;;;;;;12.73;9.03;;;;;;;4.51;95.23;98590.72;5050990;28;20195;-53
2023/01/27 06:28:41;;;;;;;10.97;8.60;;;;;;;4.58;95.03;98609.56;5051121;28;20196;-52
2023/01/27 06:31:11;;;;;;;10.23;7.97;;;;;;;4.63;94.93;98624.09;5051068;28;20587;-53
2023/01/27 06:33:39;;;;;;;11.73;8.93;;;;;;;4.69;95.54;98620.84;5051055;28;20195;-53
2023/01/27 06:36:09;;;;;;;10.53;8.80;;;;;;;4.71;94.57;98620.06;5050629;28;20231;-52
2023/01/27 06:38:36;;;;;;;9.77;7.93;;;;;;;4.65;94.58;98607.19;5049792;28;20537;-53
2023/01/27 06:41:03;;;;;;;13.83;9.30;;;;;;;4.74;94.82;98619.28;5050800;28;20194;-52
2023/01/27 06:43:30;;;;;;;13.10;9.60;;;;;;;4.78;94.23;98620.22;5050755;28;20202;-53
2023/01/27 06:45:57;;;;;;;11.83;9.00;;;;;;;4.81;94.66;98626.22;5050648;28;20243;-53
2023/01/27 06:48:24;;;;;;;12.00;8.77;;;;;;;4.85;93.44;98624.63;5050541;28;20273;-52
2023/01/27 06:50:53;;;;;;;13.80;8.13;;;;;;;4.95;93.70;98614.72;5050546;28;20191;-53
2023/01/27 06:53:20;;;;;;;9.50;8.47;;;;;;;4.95;93.12;98604.53;5051434;28;20197;-53
2023/01/27 06:55:47;;;;;;;10.43;9.10;;;;;;;5.01;92.69;98601.25;5054534;28;20198;-53
2023/01/27 06:58:15;;;;;;;12.27;9.63;;;;;;;5.02;93.48;98597.91;5054432;28;20196;-52
2023/01/27 07:00:43;;;;;;;11.03;9.03;;;;;;;4.97;93.68;98584.22;5054238;28;20244;-53
2023/01/27 07:03:12;;;;;;;12.43;9.80;;;;;;;5.04;92.50;98603.88;5054341;28;20191;-53
2023/01/27 07:05:41;;;;;;;11.83;9.83;;;;;;;5.00;92.06;98605.50;5054506;28;20313;-53
2023/01/27 07:08:09;;;;;;;14.43;9.53;;;;;;;5.01;92.48;98609.75;5054493;28;20187;-52
2023/01/27 07:10:37;;;;;;;11.23;9.60;;;;;;;5.01;93.54;98608.91;5054009;28;20197;-53
2023/01/27 07:13:06;;;;;;;11.10;9.07;;;;;;;4.99;92.68;98606.34;5054251;28;20188;-53
2023/01/27 07:15:32;;;;;;;13.00;9.80;;;;;;;5.02;93.07;98603.00;5053835;28;20194;-52
2023/01/27 07:17:59;;;;;;;12.40;10.57;;;;;;;5.07;92.80;98620.09;5054181;28;20272;-54
2023/01/27 07:20:27;;;;;;;14.43;12.57;;;;;;;5.12;92.64;98617.66;5054339;28;20205;-53
2023/01/27 07:22:56;;;;;;;14.23;10.93;;;;;;;5.07;93.21;98617.56;5053857;28;20231;-53
2023/01/27 07:25:24;;;;;;;13.70;11.30;;;;;;;5.10;91.98;98629.50;5053761;28;20217;-52
2023/01/27 07:27:51;;;;;;;14.10;11.47;;;;;;;5.15;91.33;98620.28;5053787;28;20199;-54
2023/01/27 07:30:18;;;;;;;15.03;12.43;;;;;;;5.11;91.15;98611.69;5054243;28;20188;-52
2023/01/27 07:32:45;;;;;;;13.63;11.50;;;;;;;5.18;91.66;98621.22;5053592;28;20189;-53
2023/01/27 07:35:11;;;;;;;13.90;11.30;;;;;;;5.21;91.07;98610.25;5053604;28;20193;-53
2023/01/27 07:37:38;;;;;;;15.63;12.13;;;;;;;5.24;90.99;98621.34;5050266;28;20359;-53
2023/01/27 07:40:06;;;;;;;14.20;11.70;;;;;;;5.25;90.06;98610.34;5053596;28;20194;-52
2023/01/27 07:42:34;;;;;;;17.23;12.43;;;;;;;5.26;90.47;98621.38;5052634;28;20191;-54
2023/01/27 07:45:01;;;;;;;18.90;12.83;;;;;;;5.34;90.32;98614.78;5039755;28;20218;-54
2023/01/27 07:47:28;;;;;;;15.53;12.10;;;;;;;5.39;90.80;98610.63;5044568;28;20212;-54
2023/01/27 07:49:55;;;;;;;13.23;10.43;;;;;;;5.44;89.31;98613.31;5053100;28;20194;-54
2023/01/27 07:52:22;;;;;;;12.07;10.10;;;;;;;5.49;88.53;98606.63;5047212;28;20206;-55
2023/01/27 07:54:49;;;;;;;12.60;10.00;;;;;;;5.45;88.44;98592.09;5051792;28;20211;-54
2023/01/27 07:57:15;;;;;;;12.63;9.23;;;;;;;5.63;88.35;98592.50;5052706;28;20274;-55
2023/01/27 07:59:44;;;;;;;9.63;8.70;;;;;;;5.72;87.40;98602.84;5053040;28;20195;-54
2023/01/27 08:02:11;;;;;;;14.50;9.87;;;;;;;5.78;87.95;98610.63;5048518;28;20200;-54
2023/01/27 08:04:38;;;;;;;11.77;9.97;;;;;;;5.88;87.63;98612.56;5041385;28;20224;-54
2023/01/27 08:07:06;;;;;;;11.30;9.27;;;;;;;5.79;87.74;98604.72;5033226;28;20201;-54
2023/01/27 08:09:32;;;;;;;11.90;9.67;;;;;;;5.84;86.77;98603.13;5033122;28;20588;-54
2023/01/27 08:11:59;;;;;;;10.57;8.67;;;;;;;5.93;86.76;98609.28;5033351;28;20190;-54
2023/01/27 08:14:26;;;;;;;11.33;9.30;;;;;;;5.82;86.27;98604.78;5032743;28;20605;-54
2023/01/27 08:16:54;;;;;;;13.23;9.83;;;;;;;5.84;85.54;98605.66;5046274;28;20187;-55
2023/01/27 08:19:21;;;;;;;13.40;10.00;;;;;;;5.83;85.41;98611.59;5052865;28;20202;-55
2023/01/27 08:21:47;;;;;;;13.60;11.57;;;;;;;5.90;86.00;98613.47;5049981;28;20196;-54
2023/01/27 08:24:14;;;;;;;12.33;10.67;;;;;;;5.90;86.06;98603.28;5052524;28;20194;-55
2023/01/27 08:26:41;;;;;;;13.27;11.87;;;;;;;5.89;86.61;98586.25;5052819;28;20196;-55
2023/01/27 08:29:08;;;;;;;12.65;11.30;;;;;;;5.96;86.49;98577.91;5051922;28;20427;-53
2023/01/27 08:31:35;;;;;;;12.23;9.50;;;;;;;6.11;86.15;98573.09;5052876;28;20196;-54
2023/01/27 08:34:03;;;;;;;15.90;9.80;;;;;;;6.23;86.21;98565.69;5052904;28;20198;-55
2023/01/27 08:36:30;;;;;;;15.93;11.23;;;;;;;6.36;86.44;98564.22;5052660;28;20227;-54
2023/01/27 08:38:57;;;;;;;13.23;10.33;;;;;;;6.31;86.48;98551.38;5052500;28;20681;-55
2023/01/27 08:41:26;;;;;;;12.80;10.03;;;;;;;6.32;85.82;98547.97;5053240;28;20217;-55
2023/01/27 08:43:54;;;;;;;12.50;11.20;;;;;;;6.36;85.82;98554.88;5051470;28;20439;-55
2023/01/27 08:46:21;;;;;;;12.57;11.13;;;;;;;6.45;85.92;98557.59;5052112;28;20219;-55
2023/01/27 08:48:49;;;;;;;14.57;11.43;;;;;;;6.47;85.36;98565.25;5052573;28;20235;-54
2023/01/27 08:51:17;;;;;;;16.00;11.47;;;;;;;6.51;86.61;98565.31;5052063;28;20191;-54
2023/01/27 08:53:44;;;;;;;12.80;9.97;;;;;;;6.47;85.53;98565.25;5048408;28;20202;-54
2023/01/27 08:56:12;;;;;;;12.33;9.80;;;;;;;6.45;86.29;98564.38;5032236;28;20208;-54
2023/01/27 08:58:40;;;;;;;11.20;9.30;;;;;;;6.41;85.66;98578.75;5042827;28;20641;-54
2023/01/27 09:01:07;;;;;;;10.73;9.60;;;;;;;6.11;86.27;98555.25;5036257;28;20225;-54
2023/01/27 09:03:35;;;;;;;10.80;9.23;;;;;;;6.27;86.26;98582.75;5032386;28;20213;-55
2023/01/27 09:06:02;;;;;;;15.43;10.83;;;;;;;6.16;86.57;98581.69;5031886;28;20578;-54
2023/01/27 09:08:31;;;;;;;14.00;10.23;;;;;;;6.10;86.69;98578.19;5035332;28;20564;-54
2023/01/27 09:10:58;;;;;;;10.03;9.00;;;;;;;6.08;86.27;98572.19;5051548;28;20191;-54
2023/01/27 09:13:27;;;;;;;11.00;9.00;;;;;;;6.16;86.96;98578.28;5051443;28;20231;-54
2023/01/27 09:15:54;;;;;;;13.43;9.37;;;;;;;6.25;86.74;98575.91;5050830;28;20236;-54
2023/01/27 09:18:21;;;;;;;14.47;9.97;;;;;;;6.16;85.96;98575.72;5051838;28;20303;-55
2023/01/27 09:20:48;;;;;;;12.00;9.07;;;;;;;6.08;86.06;98573.03;5051497;28;20203;-54
2023/01/27 09:23:15;;;;;;;9.07;8.00;;;;;;;6.08;86.41;98570.50;5044107;28;20224;-55
2023/01/27 09:25:43;;;;;;;9.67;8.50;;;;;;;6.03;86.53;98558.47;5051199;28;20219;-55
2023/01/27 09:28:15;;;;;;;11.17;8.33;;;;;;;6.13;87.33;98561.22;5051259;28;20269;-54
2023/01/27 09:30:48;;;;;;;11.77;9.20;;;;;;;6.20;87.23;98552.88;5051182;28;20619;-55
2023/01/27 09:33:15;;;;;;;12.13;9.13;;;;;;;6.30;86.65;98543.69;5051599;28;20191;-55
2023/01/27 09:35:45;;;;;;;12.87;10.43;;;;;;;6.38;87.27;98543.00;5049602;28;20222;-55
2023/01/27 09:38:14;;;;;;;13.03;10.70;;;;;;;6.51;86.74;98544.03;5050486;28;20213;-55
2023/01/27 09:40:58;;;;;;;12.30;10.17;;;;;;;6.47;85.46;98517.66;5049855;28;20660;-55
2023/01/27 09:44:07;;;;;;;14.80;12.60;;;;;;;6.51;85.37;98516.84;5050592;28;20206;-54
2023/01/27 09:46:59;;;;;;;15.93;14.23;;;;;;;6.64;85.66;98511.94;5040662;28;20245;-54
2023/01/27 09:49:42;;;;;;;18.10;15.17;;;;;;;6.67;84.73;98520.53;5049846;28;20196;-54
2023/01/27 09:52:38;;;;;;;18.27;16.37;;;;;;;6.67;84.38;98514.56;5050780;28;20257;-54
2023/01/27 09:55:13;;;;;;;25.27;17.63;;;;;;;6.73;85.23;98515.50;5050930;28;20198;-54
2023/01/27 09:57:50;;;;;;;21.67;16.00;;;;;;;6.70;84.83;98525.69;5051138;28;20695;-54
2023/01/27 10:00:26;;;;;;;17.80;13.30;;;;;;;6.64;84.23;98523.03;5051326;28;20191;-54
2023/01/27 10:03:13;;;;;;;14.60;13.03;;;;;;;6.41;84.56;98499.69;5051388;28;20187;-54
2023/01/27 10:05:55;;;;;;;16.23;13.10;;;;;;;6.55;85.34;98535.63;5050893;28;20224;-53
2023/01/27 10:08:52;;;;;;;16.67;13.60;;;;;;;6.58;85.37;98530.56;5050989;28;20192;-55
2023/01/27 10:11:25;;;;;;;16.90;12.80;;;;;;;6.63;85.09;98520.44;5050781;28;20191;-55
2023/01/27 10:14:04;;;;;;;17.30;12.43;;;;;;;6.72;85.38;98510.38;5050650;28;20191;-54
2023/01/27 10:16:45;;;;;;;18.07;13.27;;;;;;;6.80;85.16;98509.66;5051179;28;20207;-55
2023/01/27 10:19:27;;;;;;;17.17;13.57;;;;;;;6.82;84.82;98504.56;5050912;28;20656;-54
2023/01/27 10:22:06;;;;;;;18.13;12.47;;;;;;;6.85;83.92;98508.03;5050476;28;20654;-54
2023/01/27 10:24:47;;;;;;;15.67;12.70;;;;;;;6.87;84.45;98508.03;5050590;28;20545;-53
2023/01/27 10:27:19;;;;;;;19.83;13.53;;;;;;;6.46;83.57;98438.50;5051603;28;20257;-54
2023/01/27 10:29:56;;;;;;;18.53;13.63;;;;;;;6.82;84.56;98497.78;5054871;28;20194;-54
2023/01/27 10:32:27;;;;;;;19.55;15.50;;;;;;;6.91;84.61;98476.63;5053359;28;20428;-53
2023/01/27 10:35:04;;;;;;;31.07;22.80;;;;;;;7.09;84.44;98477.72;5054785;28;20209;-53
2023/01/27 10:37:40;;;;;;;24.20;16.17;;;;;;;7.13;83.73;98471.84;5054797;28;20257;-54
2023/01/27 10:40:16;;;;;;;18.27;13.40;;;;;;;7.17;82.87;98477.81;5054939;28;20199;-54
2023/01/27 10:42:52;;;;;;;21.07;15.10;;;;;;;6.98;83.26;98445.22;5054931;28;20286;-53
2023/01/27 10:45:27;;;;;;;20.80;14.97;;;;;;;7.11;83.55;98470.09;5054712;28;20230;-54
2023/01/27 10:48:11;;;;;;;22.40;14.47;;;;;;;7.07;83.83;98469.19;5054445;28;20631;-53
2023/01/27 10:50:43;;;;;;;21.43;15.90;;;;;;;7.12;84.53;98462.44;5054386;28;20237;-53
2023/01/27 10:53:16;;;;;;;24.03;16.23;;;;;;;7.04;84.14;98455.53;5054780;28;20258;-53
2023/01/27 10:55:53;;;;;;;20.50;14.43;;;;;;;7.11;83.74;98457.34;5054830;28;20199;-54
2023/01/27 10:58:31;;;;;;;20.90;14.97;;;;;;;7.13;84.30;98440.34;5054293;28;20652;-54
2023/01/27 11:01:01;;;;;;;19.90;14.40;;;;;;;7.29;83.86;98451.59;5054432;28;20191;-54
2023/01/27 11:03:33;;;;;;;21.00;15.27;;;;;;;7.40;83.72;98453.44;5054306;28;20273;-54
2023/01/27 11:06:04;;;;;;;19.23;14.27;;;;;;;7.45;83.43;98431.34;5054233;28;20220;-54
2023/01/27 11:08:35;;;;;;;19.77;14.10;;;;;;;7.61;82.15;98443.44;5053957;28;20257;-54
2023/01/27 11:13:51;;;;;;;17.98;15.57;;;;;;;7.86;81.99;98421.56;5052777;28;20418;-55
2023/01/27 11:16:20;;;;;;;17.07;13.33;;;;;;;8.10;81.09;98424.31;5053635;28;20199;-55
2023/01/27 11:18:56;;;;;;;16.37;12.37;;;;;;;8.18;79.29;98414.19;5053971;28;20205;-55
2023/01/27 11:21:27;;;;;;;13.90;11.60;;;;;;;8.26;78.54;98427.91;5053971;28;20200;-55
2023/01/27 11:23:58;;;;;;;16.23;11.90;;;;;;;8.10;79.54;98401.31;5053805;28;20622;-53
2023/01/27 11:26:31;;;;;;;16.23;12.47;;;;;;;8.09;78.83;98421.78;5053602;28;20250;-54
2023/01/27 11:29:16;;;;;;;14.40;12.13;;;;;;;8.14;79.81;98425.22;5053385;28;20663;-55
2023/01/27 11:31:53;;;;;;;15.07;11.30;;;;;;;8.26;80.97;98427.91;5053940;28;20191;-54
2023/01/27 11:34:30;;;;;;;14.13;11.13;;;;;;;8.25;80.04;98437.25;5053521;28;20184;-54
2023/01/27 11:36:57;;;;;;;13.57;10.07;;;;;;;8.18;79.61;98430.41;5053684;28;20630;-54
2023/01/27 11:39:25;;;;;;;14.60;10.90;;;;;;;8.09;79.65;98434.56;5052766;28;20184;-54
2023/01/27 11:41:54;;;;;;;16.03;11.50;;;;;;;8.06;80.55;98439.66;5053235;28;20188;-54
2023/01/27 11:44:26;;;;;;;16.73;10.67;;;;;;;7.98;80.49;98431.91;5053308;28;20191;-54
2023/01/27 11:46:55;;;;;;;11.43;9.13;;;;;;;7.81;80.46;98430.03;5053404;28;20223;-54
2023/01/27 11:49:27;;;;;;;12.80;9.13;;;;;;;7.79;81.10;98424.03;5053306;28;20652;-55
2023/01/27 11:52:04;;;;;;;13.97;10.10;;;;;;;7.73;81.81;98417.16;5053071;28;20394;-55
2023/01/27 11:54:36;;;;;;;17.13;11.57;;;;;;;7.84;81.83;98423.25;5053009;28;20652;-54
2023/01/27 11:57:02;;;;;;;17.20;11.90;;;;;;;7.87;81.86;98415.59;5052797;28;20668;-55
2023/01/27 11:59:35;;;;;;;15.33;11.83;;;;;;;7.91;81.49;98414.78;5052758;28;20258;-54
2023/01/27 12:02:22;;;;;;;18.13;13.33;;;;;;;7.89;82.13;98411.34;5052917;28;20664;-54
2023/01/27 12:04:55;;;;;;;17.67;12.83;;;;;;;7.90;82.24;98419.88;5052830;28;20200;-55
2023/01/27 12:07:32;;;;;;;21.05;16.67;;;;;;;7.80;82.69;98407.88;5052509;28;20446;-55
2023/01/27 12:09:59;;;;;;;17.53;12.77;;;;;;;7.95;82.07;98415.66;5052786;28;20263;-54
2023/01/27 12:12:27;;;;;;;17.10;11.70;;;;;;;7.89;82.26;98419.03;5052603;28;20192;-54
2023/01/27 12:14:55;;;;;;;14.87;11.63;;;;;;;7.81;82.44;98415.53;5052961;28;20264;-55
2023/01/27 12:17:29;;;;;;;16.67;12.20;;;;;;;7.85;83.02;98408.78;5052600;28;20621;-55
2023/01/27 12:19:59;;;;;;;16.70;13.83;;;;;;;7.94;83.07;98406.31;5051923;28;20903;-55
2023/01/27 12:22:30;;;;;;;11.83;9.27;;;;;;;7.85;81.40;98396.84;5052598;28;20436;-55